Time;durP1;ratioP1;P1;durP2;ratioP2;P2;SDS_P1;SDS_P2;PMS_P1;PMS_P2;Temp;Humidity;BMP_temperature;BMP_pressure;BME280_temperature;BME280_humidity;BME280_pressure;Samples;Min_cycle;Max_cycle;Signal;HPM_P1;HPM_P2
2022/07/23 00:00:15;;;;;;;0.23;0.23;;;;;;;27.75;34.60;95322.81;5029974;28;20261;-66
2022/07/23 00:02:42;;;;;;;0.40;0.40;;;;;;;27.68;34.79;95325.34;5021280;28;20656;-67
2022/07/23 00:05:10;;;;;;;0.40;0.40;;;;;;;27.52;35.21;95325.38;5037927;28;20215;-67
2022/07/23 00:07:37;;;;;;;0.80;0.80;;;;;;;27.52;36.11;95335.38;5029131;28;20288;-67
2022/07/23 00:10:05;;;;;;;0.40;0.40;;;;;;;27.34;36.14;95334.19;5017198;28;20193;-66
2022/07/23 00:12:32;;;;;;;1.63;0.77;;;;;;;27.24;36.41;95345.47;5029933;28;20306;-66
2022/07/23 00:14:59;;;;;;;0.87;0.67;;;;;;;27.13;36.76;95336.38;5029886;28;20262;-67
2022/07/23 00:17:26;;;;;;;0.30;0.30;;;;;;;27.17;36.33;95339.94;5041334;28;20234;-67
2022/07/23 00:19:53;;;;;;;0.93;0.93;;;;;;;27.28;36.30;95330.22;5031937;28;20664;-65
2022/07/23 00:22:20;;;;;;;0.80;0.80;;;;;;;27.22;36.05;95347.75;5040670;28;20223;-68
2022/07/23 00:24:47;;;;;;;0.60;0.60;;;;;;;27.22;36.01;95350.44;5036962;28;20235;-66
2022/07/23 00:27:34;;;;;;;1.03;1.00;;;;;;;26.81;36.42;95349.84;5039024;28;20252;-67
2022/07/23 00:30:01;;;;;;;0.57;0.57;;;;;;;26.71;36.45;95355.75;5031741;28;20221;-66
2022/07/23 00:32:28;;;;;;;0.20;0.20;;;;;;;26.62;36.09;95357.78;5039670;28;20230;-67
2022/07/23 00:35:15;;;;;;;0.40;0.40;;;;;;;26.73;35.09;95356.16;5045764;28;20193;-67
2022/07/23 00:37:42;;;;;;;0.77;0.77;;;;;;;26.62;35.28;95352.38;5028279;28;20695;-66
2022/07/23 00:40:11;;;;;;;0.40;0.40;;;;;;;26.56;35.27;95356.47;5028096;28;20228;-66
2022/07/23 00:42:38;;;;;;;1.43;1.10;;;;;;;26.59;35.85;95355.00;5028970;28;20225;-68
2022/07/23 00:45:05;;;;;;;4.53;0.87;;;;;;;26.63;35.60;95356.66;5016427;28;20198;-67
2022/07/23 00:47:33;;;;;;;0.33;0.33;;;;;;;26.77;35.36;95343.59;5046250;28;20200;-67
2022/07/23 00:50:00;;;;;;;1.73;1.40;;;;;;;26.95;35.35;95347.50;5020535;28;20213;-67
2022/07/23 00:52:27;;;;;;;0.37;0.37;;;;;;;26.73;34.95;95350.03;5027118;28;20185;-67
2022/07/23 00:54:54;;;;;;;0.80;0.63;;;;;;;26.56;35.33;95348.41;5052008;28;20206;-66
2022/07/23 00:57:21;;;;;;;0.60;0.60;;;;;;;26.63;35.42;95343.22;5027975;28;20234;-68
2022/07/23 00:59:54;;;;;;;0.50;0.50;;;;;;;26.55;35.77;95348.75;5039574;28;20259;-66
2022/07/23 01:02:21;;;;;;;0.40;0.40;;;;;;;26.68;35.80;95345.66;5034384;28;20193;-69
2022/07/23 01:04:48;;;;;;;0.80;0.80;;;;;;;26.51;36.17;95345.19;5029748;28;20753;-68
2022/07/23 01:07:16;;;;;;;0.90;0.67;;;;;;;26.45;36.02;95352.72;5041262;28;20190;-68
2022/07/23 01:09:45;;;;;;;1.37;1.27;;;;;;;26.55;35.55;95346.84;5017461;28;20312;-68
2022/07/23 01:12:12;;;;;;;0.57;0.57;;;;;;;26.55;36.02;95346.84;5042477;28;20191;-66
2022/07/23 01:14:39;;;;;;;0.10;0.10;;;;;;;26.35;36.13;95342.47;5037680;28;20648;-66
2022/07/23 01:17:06;;;;;;;0.97;0.93;;;;;;;26.41;36.28;95341.09;5042929;28;20204;-68
2022/07/23 01:19:33;;;;;;;2.87;2.00;;;;;;;26.30;36.40;95345.41;5044774;28;20215;-68
2022/07/23 01:22:03;;;;;;;0.43;0.43;;;;;;;26.36;36.38;95343.25;5020892;28;20204;-68
2022/07/23 01:24:30;;;;;;;0.73;0.40;;;;;;;26.38;36.25;95331.06;5045651;28;20295;-68
2022/07/23 01:27:01;;;;;;;1.30;0.80;;;;;;;26.08;36.92;95343.28;5051143;28;20262;-67
2022/07/23 01:29:28;;;;;;;0.47;0.47;;;;;;;26.08;37.19;95343.28;5026122;28;20237;-67
2022/07/23 01:31:57;;;;;;;5.37;1.93;;;;;;;26.01;37.05;95343.06;5016342;28;20259;-67
2022/07/23 01:34:24;;;;;;;0.87;0.87;;;;;;;26.03;36.82;95338.13;5020173;28;20209;-67
2022/07/23 01:36:51;;;;;;;1.77;1.40;;;;;;;26.11;36.91;95326.50;5014661;28;20189;-66
2022/07/23 01:39:18;;;;;;;0.20;0.20;;;;;;;26.25;36.14;95320.69;5031479;28;20201;-68
2022/07/23 01:41:46;;;;;;;0.60;0.50;;;;;;;26.28;36.23;95323.47;5032921;28;20235;-65
2022/07/23 01:44:18;;;;;;;1.47;1.30;;;;;;;26.33;35.79;95330.53;5042726;28;20758;-67
2022/07/23 01:46:45;;;;;;;0.60;0.50;;;;;;;26.21;36.80;95331.34;5046731;28;20974;-66
2022/07/23 01:49:12;;;;;;;1.53;0.90;;;;;;;26.30;37.03;95323.91;5026817;28;20215;-66
2022/07/23 01:52:00;;;;;;;0.50;0.50;;;;;;;26.60;36.96;95330.47;5050949;28;20219;-67
2022/07/23 01:54:33;;;;;;;0.17;0.17;;;;;;;26.38;36.74;95324.88;5040114;28;20204;-67
2022/07/23 01:57:04;;;;;;;0.27;0.27;;;;;;;26.24;36.76;95325.28;5023074;28;20201;-67
2022/07/23 01:59:32;;;;;;;1.13;0.80;;;;;;;26.19;36.85;95333.59;5028895;28;20212;-66
2022/07/23 02:01:59;;;;;;;0.70;0.70;;;;;;;26.39;36.48;95331.81;5044971;28;20239;-68
2022/07/23 02:04:28;;;;;;;0.90;0.90;;;;;;;26.08;36.29;95339.78;5033478;28;20718;-66
2022/07/23 02:06:56;;;;;;;0.67;0.67;;;;;;;26.23;36.26;95323.75;5010656;28;20236;-67
2022/07/23 02:09:25;;;;;;;1.77;1.20;;;;;;;26.37;36.40;95334.09;5014050;28;20367;-68
2022/07/23 02:11:52;;;;;;;0.43;0.43;;;;;;;26.38;37.29;95341.81;5050422;28;20192;-69
2022/07/23 02:14:18;;;;;;;0.83;0.80;;;;;;;26.34;37.02;95340.91;5050698;28;20200;-69
2022/07/23 02:16:45;;;;;;;1.23;1.03;;;;;;;25.80;38.25;95347.84;5018122;28;20569;-66
2022/07/23 02:19:14;;;;;;;0.67;0.67;;;;;;;25.97;37.88;95355.59;5042788;28;20200;-66
2022/07/23 02:21:41;;;;;;;0.87;0.47;;;;;;;26.12;37.67;95346.06;5028133;28;20202;-66
2022/07/23 02:24:09;;;;;;;0.60;0.60;;;;;;;25.97;37.79;95342.16;5033423;28;20185;-68
2022/07/23 02:26:37;;;;;;;0.63;0.60;;;;;;;25.89;37.99;95340.41;5022454;28;20757;-68
2022/07/23 02:29:05;;;;;;;0.50;0.50;;;;;;;26.01;37.65;95337.69;5032407;28;20280;-68
2022/07/23 02:31:32;;;;;;;0.37;0.30;;;;;;;25.97;37.88;95336.78;5042417;28;20303;-67
2022/07/23 02:34:00;;;;;;;0.53;0.50;;;;;;;25.97;37.71;95342.16;5036334;28;20628;-67
2022/07/23 02:36:27;;;;;;;1.47;1.37;;;;;;;26.03;37.78;95346.19;5038711;28;20204;-65
2022/07/23 02:38:55;;;;;;;0.50;0.50;;;;;;;26.03;38.13;95343.50;5043602;28;20651;-65
2022/07/23 02:41:22;;;;;;;0.97;0.97;;;;;;;25.84;38.67;95354.84;5042753;28;20581;-69
2022/07/23 02:43:49;;;;;;;0.50;0.50;;;;;;;25.62;38.94;95357.28;5022206;28;20216;-67
2022/07/23 02:46:17;;;;;;;0.83;0.83;;;;;;;25.65;39.33;95359.28;5038938;28;20211;-66
2022/07/23 02:48:45;;;;;;;3.50;1.70;;;;;;;25.53;39.39;95353.94;5019722;28;20266;-69
2022/07/23 02:51:13;;;;;;;1.20;1.07;;;;;;;25.31;39.82;95363.19;5030792;28;20235;-66
2022/07/23 02:53:48;;;;;;;0.30;0.30;;;;;;;25.30;39.82;95353.59;5043772;28;20688;-66
2022/07/23 02:56:15;;;;;;;0.40;0.40;;;;;;;25.52;39.37;95357.72;5026051;28;20748;-67
2022/07/23 02:58:41;;;;;;;1.73;0.50;;;;;;;25.33;39.56;95365.56;5023297;28;20622;-69
2022/07/23 03:01:08;;;;;;;0.70;0.70;;;;;;;25.29;39.75;95372.72;5021282;28;20578;-69
2022/07/23 03:03:35;;;;;;;0.87;0.47;;;;;;;25.35;39.25;95365.97;5045597;28;20204;-66
2022/07/23 03:06:03;;;;;;;0.20;0.20;;;;;;;25.35;39.33;95365.97;5034118;28;20198;-66
2022/07/23 03:08:30;;;;;;;0.80;0.70;;;;;;;25.34;39.39;95367.13;5023108;28;20206;-70
2022/07/23 03:10:56;;;;;;;1.37;1.27;;;;;;;25.22;39.47;95375.94;5037103;28;20204;-67
2022/07/23 03:13:23;;;;;;;0.30;0.30;;;;;;;25.06;39.75;95373.16;5036778;28;20631;-65
2022/07/23 03:15:51;;;;;;;0.47;0.47;;;;;;;25.22;39.79;95383.22;5037768;28;20207;-66
2022/07/23 03:18:18;;;;;;;1.03;0.83;;;;;;;25.16;39.64;95377.31;5049975;28;20710;-69
2022/07/23 03:20:45;;;;;;;1.47;1.37;;;;;;;25.40;39.40;95381.91;5040457;28;20320;-68
2022/07/23 03:23:12;;;;;;;1.43;1.33;;;;;;;25.40;39.14;95387.28;5046761;28;20279;-66
2022/07/23 03:25:39;;;;;;;0.80;0.80;;;;;;;25.44;38.92;95382.78;5049590;28;20196;-66
2022/07/23 03:28:07;;;;;;;1.70;1.33;;;;;;;25.44;39.08;95372.03;5030983;28;20695;-66
2022/07/23 03:30:34;;;;;;;0.53;0.53;;;;;;;25.25;39.66;95387.91;5017513;28;20197;-67
2022/07/23 03:33:01;;;;;;;1.03;1.03;;;;;;;25.08;39.67;95395.06;5043301;28;20695;-66
2022/07/23 03:35:28;;;;;;;6.33;1.50;;;;;;;25.28;39.87;95384.53;5050471;28;20699;-68
2022/07/23 03:38:21;;;;;;;0.70;0.70;;;;;;;25.23;39.58;95382.09;5038664;28;20215;-68
2022/07/23 03:40:49;;;;;;;0.50;0.50;;;;;;;25.23;39.95;95387.47;5034463;28;20213;-67
2022/07/23 03:43:16;;;;;;;1.00;0.93;;;;;;;25.33;39.58;95395.06;5037775;28;20232;-67
2022/07/23 03:45:44;;;;;;;5.30;2.00;;;;;;;25.39;39.38;95388.38;5048932;28;20269;-67
2022/07/23 03:48:11;;;;;;;0.40;0.40;;;;;;;25.30;39.45;95379.63;5048550;28;20207;-66
2022/07/23 03:50:38;;;;;;;0.50;0.50;;;;;;;25.47;39.35;95382.13;5026196;28;20229;-69
2022/07/23 03:53:05;;;;;;;1.47;1.23;;;;;;;25.29;39.94;95396.84;5017882;28;20201;-70
2022/07/23 03:55:33;;;;;;;0.50;0.50;;;;;;;25.64;39.12;95381.84;5031801;28;20194;-66
2022/07/23 03:58:00;;;;;;;0.40;0.40;;;;;;;25.54;39.97;95387.69;5033528;28;20196;-68
2022/07/23 04:00:27;;;;;;;1.10;1.00;;;;;;;25.53;40.14;95399.56;5016005;28;20228;-69
2022/07/23 04:02:54;;;;;;;0.20;0.20;;;;;;;25.29;40.06;95396.84;5040611;28;20188;-68
2022/07/23 04:05:21;;;;;;;1.90;1.80;;;;;;;25.44;39.70;95391.63;5017625;28;20225;-66
2022/07/23 04:07:52;;;;;;;0.27;0.27;;;;;;;25.38;39.91;95394.88;5032547;28;20198;-67
2022/07/23 04:10:20;;;;;;;0.57;0.57;;;;;;;25.34;38.82;95391.25;5026418;28;20235;-67
2022/07/23 04:12:47;;;;;;;0.43;0.43;;;;;;;25.14;39.97;95397.53;5048268;28;20630;-68
2022/07/23 04:15:14;;;;;;;0.73;0.73;;;;;;;24.84;40.79;95392.34;5033615;28;20186;-66
2022/07/23 04:17:41;;;;;;;1.23;1.13;;;;;;;25.17;40.42;95399.53;5035810;28;20235;-66
2022/07/23 04:20:08;;;;;;;1.30;1.20;;;;;;;25.25;40.14;95402.13;5034111;28;20223;-67
2022/07/23 04:22:43;;;;;;;0.50;0.50;;;;;;;25.61;40.08;95398.63;5022126;28;20205;-66
2022/07/23 04:25:10;;;;;;;1.20;1.10;;;;;;;25.78;39.42;95403.78;5036231;28;20665;-69
2022/07/23 04:27:37;;;;;;;0.90;0.90;;;;;;;25.96;39.65;95397.00;5019717;28;20256;-66
2022/07/23 04:30:04;;;;;;;8.07;1.33;;;;;;;25.88;39.62;95408.66;5029546;28;20189;-65
2022/07/23 04:32:31;;;;;;;0.97;0.90;;;;;;;25.85;39.63;95403.97;5028328;28;20205;-66
2022/07/23 04:34:59;;;;;;;0.50;0.50;;;;;;;25.80;39.99;95398.84;5043971;28;20243;-68
2022/07/23 04:37:26;;;;;;;0.93;0.93;;;;;;;25.82;39.59;95410.78;5047962;28;20230;-67
2022/07/23 04:39:52;;;;;;;1.80;0.87;;;;;;;25.86;39.80;95402.84;5034951;28;20239;-68
2022/07/23 04:42:23;;;;;;;0.50;0.50;;;;;;;25.62;39.85;95405.59;5047954;28;20641;-67
2022/07/23 04:44:50;;;;;;;0.70;0.70;;;;;;;25.38;40.67;95410.97;5034859;28;20208;-66
2022/07/23 04:47:17;;;;;;;0.80;0.60;;;;;;;25.33;41.45;95408.50;5048741;28;20193;-65
2022/07/23 04:49:45;;;;;;;1.07;1.07;;;;;;;25.30;42.22;95411.81;5047932;28;20196;-67
2022/07/23 04:52:11;;;;;;;0.77;0.77;;;;;;;25.49;41.73;95409.41;5017651;28;20255;-69
2022/07/23 04:54:39;;;;;;;2.47;1.87;;;;;;;25.53;41.17;95412.97;5037986;28;20250;-67
2022/07/23 04:57:06;;;;;;;0.33;0.33;;;;;;;25.55;40.95;95416.88;5020374;28;20631;-68
2022/07/23 04:59:33;;;;;;;1.00;1.00;;;;;;;25.54;40.60;95419.91;5047883;28;20239;-66
2022/07/23 05:02:03;;;;;;;1.67;1.33;;;;;;;25.47;40.91;95414.31;5033713;28;20296;-69
2022/07/23 05:04:31;;;;;;;2.10;1.90;;;;;;;24.82;42.48;95420.59;5047720;28;20205;-69
2022/07/23 05:06:58;;;;;;;1.23;1.13;;;;;;;25.43;40.66;95413.41;5047777;28;20204;-73
2022/07/23 05:09:25;;;;;;;0.70;0.70;;;;;;;25.09;42.30;95410.03;5031917;28;20218;-68
2022/07/23 05:11:52;;;;;;;1.90;1.60;;;;;;;25.32;41.90;95417.63;5039948;28;20221;-66
2022/07/23 05:14:20;;;;;;;0.50;0.50;;;;;;;25.34;41.89;95420.78;5028473;28;20206;-69
2022/07/23 05:16:50;;;;;;;0.90;0.90;;;;;;;25.51;41.61;95420.59;5034415;28;20200;-66
2022/07/23 05:19:22;;;;;;;0.67;0.67;;;;;;;25.71;40.96;95425.81;5047936;28;20223;-65
2022/07/23 05:21:52;;;;;;;1.70;1.30;;;;;;;25.51;41.00;95415.22;5030516;28;20209;-67
2022/07/23 05:24:19;;;;;;;0.37;0.37;;;;;;;25.92;40.31;95426.44;5015478;28;20579;-67
2022/07/23 05:26:46;;;;;;;0.70;0.70;;;;;;;26.12;39.41;95421.25;5041540;28;20225;-67
2022/07/23 05:29:13;;;;;;;0.70;0.70;;;;;;;25.46;39.79;95423.47;5038457;28;20238;-68
2022/07/23 05:31:40;;;;;;;0.60;0.60;;;;;;;25.65;40.00;95429.06;5041718;28;20210;-67
2022/07/23 05:34:07;;;;;;;1.23;0.73;;;;;;;25.91;39.19;95424.09;5034328;28;20205;-67
2022/07/23 05:36:35;;;;;;;0.40;0.40;;;;;;;25.57;40.21;95413.84;5044968;28;20212;-65
2022/07/23 05:39:03;;;;;;;1.17;0.93;;;;;;;25.89;39.76;95424.41;5040755;28;20235;-66
2022/07/23 05:41:34;;;;;;;1.13;1.13;;;;;;;25.80;38.89;95423.00;5025304;28;20198;-66
2022/07/23 05:44:02;;;;;;;0.60;0.60;;;;;;;26.12;38.41;95419.38;5024811;28;20210;-66
2022/07/23 05:46:31;;;;;;;1.47;1.37;;;;;;;26.35;38.43;95425.78;5037632;28;20209;-65
2022/07/23 05:49:03;;;;;;;1.40;1.23;;;;;;;25.94;38.50;95418.84;5023024;28;20197;-66
2022/07/23 05:51:49;;;;;;;1.37;0.97;;;;;;;25.73;40.53;95417.44;5024007;28;20353;-68
2022/07/23 05:54:25;;;;;;;0.70;0.70;;;;;;;25.97;41.11;95423.53;5034685;28;20656;-66
2022/07/23 05:56:52;;;;;;;0.93;0.87;;;;;;;26.28;39.78;95427.47;5016875;28;20200;-68
2022/07/23 05:59:19;;;;;;;0.87;0.87;;;;;;;26.66;38.33;95422.41;5041568;28;20190;-67
2022/07/23 06:01:46;;;;;;;0.80;0.80;;;;;;;26.76;37.93;95411.97;5047296;28;20204;-66
2022/07/23 06:04:15;;;;;;;4.57;1.63;;;;;;;26.90;38.14;95412.31;5043029;28;20216;-67
2022/07/23 06:06:52;;;;;;;0.97;0.87;;;;;;;26.80;38.45;95420.13;5045686;28;20204;-68
2022/07/23 06:09:20;;;;;;;0.70;0.70;;;;;;;27.02;38.53;95420.28;5020457;28;20224;-66
2022/07/23 06:11:47;;;;;;;0.53;0.53;;;;;;;26.59;39.59;95406.84;5017879;28;20205;-67
2022/07/23 06:14:14;;;;;;;3.43;1.23;;;;;;;26.74;38.70;95416.91;5045182;28;20219;-66
2022/07/23 06:16:51;;;;;;;0.33;0.33;;;;;;;27.49;37.72;95408.75;5036976;28;20615;-69
2022/07/23 06:19:18;;;;;;;1.17;1.07;;;;;;;27.66;37.29;95400.31;5012313;28;20601;-65
2022/07/23 06:21:45;;;;;;;1.03;0.93;;;;;;;27.25;37.16;95411.63;5038192;28;20669;-68
2022/07/23 06:24:16;;;;;;;0.77;0.77;;;;;;;27.43;37.77;95407.47;5035552;28;20204;-64
2022/07/23 06:26:42;;;;;;;2.43;1.90;;;;;;;27.79;37.09;95409.84;5050217;28;20730;-69
2022/07/23 06:29:09;;;;;;;0.77;0.77;;;;;;;27.86;37.07;95404.59;5031800;28;20200;-68
2022/07/23 06:31:36;;;;;;;0.30;0.30;;;;;;;27.87;36.73;95374.63;5040707;28;20200;-65
2022/07/23 06:34:04;;;;;;;2.43;1.80;;;;;;;27.98;37.23;95391.81;5040613;28;20197;-66
2022/07/23 06:36:30;;;;;;;2.20;1.17;;;;;;;27.82;37.71;95406.44;5035419;28;20243;-67
2022/07/23 06:38:57;;;;;;;2.90;1.47;;;;;;;27.24;38.94;95404.69;5024309;28;20194;-66
2022/07/23 06:41:25;;;;;;;0.50;0.50;;;;;;;27.61;36.58;95400.59;5023390;28;20225;-68
2022/07/23 06:43:51;;;;;;;6.03;1.90;;;;;;;27.94;37.50;95404.44;5040952;28;20213;-66
2022/07/23 06:46:21;;;;;;;2.37;1.20;;;;;;;28.19;37.03;95402.25;5010750;28;20263;-65
2022/07/23 06:48:50;;;;;;;0.63;0.63;;;;;;;28.40;36.20;95399.97;5024795;28;20202;-66
2022/07/23 06:51:17;;;;;;;1.33;1.17;;;;;;;28.42;35.38;95397.72;5020792;28;20615;-68
2022/07/23 06:53:44;;;;;;;1.40;1.17;;;;;;;28.57;35.32;95390.69;5041769;28;20200;-65
2022/07/23 06:56:11;;;;;;;0.27;0.27;;;;;;;28.72;36.60;95387.88;5012003;28;20273;-67
2022/07/23 06:58:39;;;;;;;3.07;0.97;;;;;;;28.84;36.36;95390.44;5031927;28;20203;-65
2022/07/23 07:01:06;;;;;;;0.70;0.70;;;;;;;28.90;36.58;95393.63;5031674;28;20217;-67
2022/07/23 07:03:34;;;;;;;1.33;1.07;;;;;;;29.03;34.76;95388.81;5014694;28;20237;-67
2022/07/23 07:06:02;;;;;;;1.90;1.00;;;;;;;29.20;33.36;95386.44;5043267;28;20212;-67
2022/07/23 07:08:28;;;;;;;1.53;1.40;;;;;;;28.88;33.13;95369.69;5032698;28;20221;-67
2022/07/23 07:10:55;;;;;;;0.90;0.90;;;;;;;28.82;33.34;95387.31;5012266;28;20292;-68
2022/07/23 07:13:22;;;;;;;0.33;0.33;;;;;;;28.98;34.52;95378.31;5023728;28;20258;-64
2022/07/23 07:15:49;;;;;;;0.77;0.77;;;;;;;29.43;33.45;95381.00;5038752;28;20651;-67
2022/07/23 07:18:16;;;;;;;1.17;1.07;;;;;;;29.33;32.30;95379.69;5049380;28;20271;-64
2022/07/23 07:20:43;;;;;;;1.10;1.00;;;;;;;28.85;31.31;95375.78;5029659;28;20291;-67
2022/07/23 07:23:10;;;;;;;3.90;1.93;;;;;;;29.43;31.04;95373.69;5030775;28;20643;-67
2022/07/23 07:25:37;;;;;;;0.70;0.70;;;;;;;29.66;31.81;95379.03;5033292;28;20206;-68
2022/07/23 07:28:04;;;;;;;1.67;1.07;;;;;;;30.02;32.58;95381.06;5012885;28;20324;-66
2022/07/23 07:30:31;;;;;;;0.87;0.77;;;;;;;29.53;33.38;95373.06;5036430;28;20193;-64
2022/07/23 07:33:00;;;;;;;0.60;0.60;;;;;;;29.66;32.83;95370.91;5011383;28;20289;-67
2022/07/23 07:35:27;;;;;;;0.37;0.37;;;;;;;29.70;32.06;95364.47;5049494;28;20188;-66
2022/07/23 07:37:54;;;;;;;0.67;0.67;;;;;;;29.84;31.78;95366.56;5026689;28;20269;-66
2022/07/23 07:40:21;;;;;;;0.60;0.60;;;;;;;30.17;31.61;95357.69;5010746;28;20312;-66
2022/07/23 07:42:50;;;;;;;0.50;0.50;;;;;;;30.07;32.81;95359.16;5021781;28;20629;-66
2022/07/23 07:45:20;;;;;;;0.67;0.67;;;;;;;30.43;30.90;95344.91;5047709;28;20224;-65
2022/07/23 07:47:47;;;;;;;0.80;0.80;;;;;;;30.36;31.27;95366.47;5040932;28;20197;-66
2022/07/23 07:50:14;;;;;;;1.07;0.90;;;;;;;30.46;31.72;95365.00;5044408;28;20375;-65
2022/07/23 07:52:42;;;;;;;0.70;0.70;;;;;;;30.05;30.42;95366.84;5036855;28;20196;-64
2022/07/23 07:55:10;;;;;;;1.60;1.50;;;;;;;30.51;30.31;95362.75;5022349;28;20213;-68
2022/07/23 07:57:37;;;;;;;0.97;0.93;;;;;;;30.74;30.34;95355.28;5010272;28;20723;-65
2022/07/23 08:00:07;;;;;;;0.53;0.53;;;;;;;30.81;30.56;95336.44;5038682;28;20303;-66
2022/07/23 08:02:40;;;;;;;1.87;1.70;;;;;;;31.08;31.95;95341.66;5026572;28;20278;-64
2022/07/23 08:05:08;;;;;;;2.07;1.97;;;;;;;31.66;29.77;95339.78;5034342;28;20684;-68
2022/07/23 08:07:34;;;;;;;0.57;0.57;;;;;;;31.12;31.24;95343.25;5024024;28;20279;-67
2022/07/23 08:10:01;;;;;;;0.63;0.63;;;;;;;31.26;31.51;95326.34;5017310;28;20197;-67
2022/07/23 08:12:37;;;;;;;0.67;0.67;;;;;;;31.76;30.11;95333.66;5043650;28;20198;-67
2022/07/23 08:15:06;;;;;;;0.80;0.80;;;;;;;31.77;30.01;95329.75;5023338;28;20295;-66
2022/07/23 08:17:40;;;;;;;10.40;2.30;;;;;;;31.54;30.42;95331.97;5037017;28;20255;-65
2022/07/23 08:20:08;;;;;;;2.00;0.77;;;;;;;31.57;30.92;95339.31;5044528;28;20319;-65
2022/07/23 08:22:55;;;;;;;3.27;1.50;;;;;;;31.96;29.85;95332.22;5042629;28;20284;-65
2022/07/23 08:25:26;;;;;;;1.33;1.23;;;;;;;32.32;28.68;95339.31;5024422;28;20204;-65
2022/07/23 08:27:53;;;;;;;0.40;0.40;;;;;;;32.14;28.43;95326.84;5049983;28;20228;-65
2022/07/23 08:30:21;;;;;;;1.57;1.33;;;;;;;32.38;29.61;95332.38;5030573;28;20200;-67
2022/07/23 08:33:11;;;;;;;2.90;1.67;;;;;;;32.58;28.25;95330.91;5042348;28;20196;-66
2022/07/23 08:35:57;;;;;;;2.07;1.87;;;;;;;32.68;27.35;95327.41;5020763;28;20205;-65
2022/07/23 08:38:25;;;;;;;1.20;1.13;;;;;;;32.61;28.39;95319.28;5019209;28;20267;-66
2022/07/23 08:40:54;;;;;;;1.17;1.07;;;;;;;32.74;28.06;95333.25;5042177;28;20247;-65
2022/07/23 08:43:26;;;;;;;1.50;1.40;;;;;;;32.71;27.93;95329.38;5030609;28;20193;-68
2022/07/23 08:45:58;;;;;;;1.60;1.50;;;;;;;33.10;27.51;95336.78;5038179;28;20200;-65
2022/07/23 08:48:30;;;;;;;1.93;1.80;;;;;;;32.88;27.77;95316.97;5034575;28;20204;-67
2022/07/23 08:51:00;;;;;;;0.67;0.67;;;;;;;33.44;27.76;95327.06;5022374;28;20283;-65
2022/07/23 08:53:28;;;;;;;0.60;0.60;;;;;;;33.68;27.33;95326.28;5024267;28;20197;-65
2022/07/23 08:55:57;;;;;;;6.87;1.43;;;;;;;33.29;27.98;95318.16;5010356;28;20668;-66
2022/07/23 08:58:25;;;;;;;2.27;1.47;;;;;;;33.72;27.91;95316.16;5041148;28;20200;-67
2022/07/23 09:00:58;;;;;;;1.33;1.23;;;;;;;33.97;26.68;95321.53;5048434;28;20673;-64
2022/07/23 09:03:28;;;;;;;8.83;1.67;;;;;;;34.09;26.26;95312.97;5049741;28;20295;-65
2022/07/23 09:05:56;;;;;;;1.23;1.17;;;;;;;34.27;26.54;95316.38;5048254;28;20652;-65
2022/07/23 09:08:41;;;;;;;1.00;0.97;;;;;;;34.32;25.98;95308.56;5027062;28;20256;-65
2022/07/23 09:11:10;;;;;;;1.40;1.30;;;;;;;34.47;25.92;95303.84;5031085;28;20250;-65
2022/07/23 09:13:52;;;;;;;3.17;1.43;;;;;;;34.40;25.59;95312.78;5053862;28;20196;-67
2022/07/23 09:16:24;;;;;;;1.33;1.23;;;;;;;34.61;25.35;95304.53;5048835;28;20235;-64
2022/07/23 09:18:51;;;;;;;1.73;1.53;;;;;;;34.42;24.54;95310.44;5022976;28;20283;-67
2022/07/23 09:21:23;;;;;;;2.17;1.90;;;;;;;34.60;24.48;95305.69;5048709;28;20217;-66
2022/07/23 09:24:09;;;;;;;4.03;1.63;;;;;;;34.55;24.37;95308.84;5045364;28;20198;-66
2022/07/23 09:26:40;;;;;;;4.30;2.03;;;;;;;34.57;24.23;95306.50;5044341;28;20244;-64
2022/07/23 09:29:09;;;;;;;4.13;1.67;;;;;;;34.49;24.19;95304.97;5023279;28;20189;-63
2022/07/23 09:31:46;;;;;;;8.87;1.17;;;;;;;34.31;24.84;95298.84;5045120;28;20227;-66
2022/07/23 09:34:15;;;;;;;0.93;0.93;;;;;;;34.58;24.63;95297.16;5033216;28;20206;-67
2022/07/23 09:36:42;;;;;;;1.17;1.07;;;;;;;34.79;23.99;95298.19;5025557;28;20201;-66
2022/07/23 09:39:10;;;;;;;1.37;1.33;;;;;;;35.09;23.53;95292.91;5036414;28;20204;-66
2022/07/23 09:41:40;;;;;;;0.63;0.63;;;;;;;35.39;24.34;95280.16;5027958;28;20225;-66
2022/07/23 09:44:13;;;;;;;1.07;1.00;;;;;;;35.55;23.03;95276.91;5038515;28;20664;-64
2022/07/23 09:46:40;;;;;;;0.70;0.70;;;;;;;34.93;22.56;95284.47;5041303;28;20199;-67
2022/07/23 09:49:18;;;;;;;3.73;1.37;;;;;;;35.03;22.83;95278.16;5026930;28;20201;-66
2022/07/23 09:51:47;;;;;;;1.37;1.27;;;;;;;35.08;23.03;95280.47;5013213;28;20194;-66
2022/07/23 09:54:24;;;;;;;0.90;0.90;;;;;;;35.57;21.63;95280.00;5026151;28;20675;-66
2022/07/23 09:56:52;;;;;;;0.93;0.93;;;;;;;35.26;23.33;95281.06;5021867;28;21010;-64
2022/07/23 09:59:23;;;;;;;1.20;1.10;;;;;;;35.58;23.03;95267.94;5032786;28;20204;-64
2022/07/23 10:01:52;;;;;;;3.17;1.13;;;;;;;36.08;23.44;95265.41;5018337;28;20716;-65
2022/07/23 10:04:22;;;;;;;1.10;1.00;;;;;;;36.26;22.19;95266.72;5041259;28;20287;-66
2022/07/23 10:07:03;;;;;;;1.17;1.07;;;;;;;36.09;21.54;95245.13;5052226;28;20532;-66
2022/07/23 10:09:52;;;;;;;0.53;0.53;;;;;;;36.51;21.61;95260.94;5019722;28;20219;-66
2022/07/23 10:15:17;;;;;;;3.87;2.30;;;;;;;36.60;20.61;95248.31;5018963;28;20240;-65
2022/07/23 10:17:44;;;;;;;1.40;1.27;;;;;;;36.85;20.51;95247.16;5046271;28;20200;-67
2022/07/23 10:20:11;;;;;;;2.57;1.20;;;;;;;36.73;20.55;95245.00;5046037;28;20201;-65
2022/07/23 10:22:57;;;;;;;2.63;1.50;;;;;;;36.61;20.55;95244.38;5032027;28;20622;-65
2022/07/23 10:25:39;;;;;;;0.80;0.80;;;;;;;36.15;19.84;95246.97;5012737;28;20201;-66
2022/07/23 10:28:52;;;;;;;1.43;1.00;;;;;;;36.31;19.08;95252.63;5042572;28;20247;-65
2022/07/23 10:31:37;;;;;;;1.30;0.73;;;;;;;36.88;19.42;95235.41;5037509;28;20197;-65
2022/07/23 10:34:35;;;;;;;0.63;0.63;;;;;;;36.89;18.64;95231.50;5034117;28;20285;-66
2022/07/23 10:37:24;;;;;;;1.37;1.23;;;;;;;36.81;17.96;95222.59;5037966;28;20300;-63
2022/07/23 10:40:17;;;;;;;1.03;0.83;;;;;;;37.35;17.53;95228.75;5052660;28;20664;-65
2022/07/23 10:42:47;;;;;;;2.47;1.57;;;;;;;37.50;18.13;95225.31;5051955;28;20254;-64
2022/07/23 10:45:29;;;;;;;1.03;1.03;;;;;;;37.59;19.24;95230.25;5046787;28;20216;-65
2022/07/23 10:48:21;;;;;;;1.80;0.97;;;;;;;38.04;17.68;95223.09;5033679;28;20291;-66
2022/07/23 10:51:10;;;;;;;1.33;1.23;;;;;;;37.91;17.44;95224.91;5051556;28;20207;-64
2022/07/23 10:53:49;;;;;;;1.67;1.57;;;;;;;37.84;18.44;95216.09;5037787;28;20211;-65
2022/07/23 10:56:36;;;;;;;1.10;1.10;;;;;;;38.33;17.99;95212.28;5028082;28;20289;-64
2022/07/23 10:59:04;;;;;;;2.40;0.73;;;;;;;37.90;17.55;95206.97;5021569;28;20298;-64
2022/07/23 11:01:40;;;;;;;3.63;1.90;;;;;;;38.37;17.45;95211.03;5026446;28;20244;-64
2022/07/23 11:04:08;;;;;;;0.97;0.67;;;;;;;38.44;16.87;95201.88;5024902;28;20235;-63
2022/07/23 11:07:01;;;;;;;4.50;2.17;;;;;;;38.24;16.29;95199.19;5050038;28;20200;-65
2022/07/23 11:09:42;;;;;;;2.07;1.00;;;;;;;38.17;16.91;95193.09;5011232;28;20336;-66
2022/07/23 11:12:21;;;;;;;0.97;0.80;;;;;;;38.67;18.03;95192.75;5031236;28;20223;-63
2022/07/23 11:15:07;;;;;;;1.27;1.17;;;;;;;38.87;17.57;95179.72;5037051;28;20809;-65
2022/07/23 11:17:54;;;;;;;0.80;0.80;;;;;;;38.93;16.24;95180.72;5039695;28;20664;-64
2022/07/23 11:20:24;;;;;;;0.90;0.90;;;;;;;38.06;16.07;95179.66;5028840;28;20258;-66
2022/07/23 11:22:58;;;;;;;0.80;0.80;;;;;;;38.68;16.61;95167.66;5022993;28;20225;-64
2022/07/23 11:25:27;;;;;;;0.50;0.50;;;;;;;38.17;15.22;95176.66;5031392;28;20197;-63
2022/07/23 11:27:55;;;;;;;0.53;0.53;;;;;;;37.47;15.27;95174.22;5044562;28;20260;-63
2022/07/23 11:30:28;;;;;;;4.30;1.83;;;;;;;37.78;14.72;95174.00;5023441;28;20200;-64
2022/07/23 11:33:16;;;;;;;8.60;2.30;;;;;;;38.38;14.74;95160.53;5050224;28;20189;-64
2022/07/23 11:35:49;;;;;;;0.70;0.70;;;;;;;38.62;14.59;95168.56;5027311;28;20257;-65
2022/07/23 11:38:19;;;;;;;0.57;0.57;;;;;;;38.97;14.69;95168.47;5050594;28;20636;-64
2022/07/23 11:40:49;;;;;;;0.30;0.30;;;;;;;38.90;12.84;95156.94;5042719;28;20197;-65
2022/07/23 11:43:15;;;;;;;0.40;0.40;;;;;;;38.76;13.07;95160.03;5044584;28;20238;-63
2022/07/23 11:45:50;;;;;;;0.70;0.70;;;;;;;39.50;13.91;95150.63;5023930;28;20614;-64
2022/07/23 11:48:18;;;;;;;0.50;0.50;;;;;;;39.54;14.08;95148.56;5037017;28;20200;-63
2022/07/23 11:50:45;;;;;;;16.60;1.03;;;;;;;39.31;14.30;95148.78;5044138;28;20636;-63